SWA2504 PHTO-PHNL
Flight info
| Callsign | SWA2504 |
|---|---|
| Flight time | 0h 39m |
| Altitude | 26000 |
| Route | DCT ITO V22 OKALA V16 LNY JULLE5 |
| Aircraft | B38M/M-SDE1FGHILORVWXY/HB1 |
Departure
| Time | 2026-05-04 04:52 |
|---|---|
| Airport | Hilo International Airport (PHTO) |
Arrival
| Time | 2026-05-04 05:31 |
|---|---|
| Airport | Daniel K. Inouye International Airport (PHNL) |
| Time | Latitude | Longitude | Altitude | Speed | Heading |
|---|---|---|---|---|---|
| 2026-05-04 04:25 | 19.71566 | -155.03909 | 44 ft | 0 kts | 178° |
| 2026-05-04 04:45 | 19.71582 | -155.03909 | 42 ft | 4 kts | 182° |
| 2026-05-04 04:47 | 19.71644 | -155.03942 | 42 ft | 0 kts | 89° |
| 2026-05-04 04:49 | 19.71646 | -155.03757 | 45 ft | 22 kts | 89° |
| 2026-05-04 04:49 | 19.71712 | -155.03674 | 46 ft | 20 kts | 0° |
| 2026-05-04 04:49 | 19.71878 | -155.03674 | 46 ft | 23 kts | 1° |
| 2026-05-04 04:49 | 19.71969 | -155.03672 | 47 ft | 12 kts | 5° |
| 2026-05-04 04:50 | 19.72017 | -155.03609 | 47 ft | 13 kts | 89° |
| 2026-05-04 04:50 | 19.72016 | -155.03501 | 48 ft | 18 kts | 90° |
| 2026-05-04 04:50 | 19.72016 | -155.03328 | 48 ft | 29 kts | 90° |
| 2026-05-04 04:50 | 19.72015 | -155.03106 | 49 ft | 28 kts | 90° |
| 2026-05-04 04:51 | 19.72035 | -155.02961 | 47 ft | 15 kts | 45° |
| 2026-05-04 04:51 | 19.72136 | -155.02942 | 49 ft | 16 kts | 319° |
| 2026-05-04 04:51 | 19.72147 | -155.03004 | 49 ft | 9 kts | 270° |
| 2026-05-04 04:51 | 19.72146 | -155.03321 | 48 ft | 82 kts | 270° |
| 2026-05-04 04:52 | 19.72146 | -155.04186 | 44 ft | 149 kts | 270° |
| 2026-05-04 04:52 | 19.72147 | -155.05409 | 454 ft | 171 kts | 268° |
| 2026-05-04 04:52 | 19.72270 | -155.06688 | 1200 ft | 180 kts | 288° |
| 2026-05-04 04:52 | 19.73085 | -155.07702 | 2060 ft | 185 kts | 331° |
| 2026-05-04 04:53 | 19.74234 | -155.08232 | 2963 ft | 184 kts | 340° |
| 2026-05-04 04:53 | 19.75450 | -155.08769 | 3618 ft | 196 kts | 339° |
| 2026-05-04 04:53 | 19.76772 | -155.09358 | 4128 ft | 217 kts | 338° |
| 2026-05-04 04:53 | 19.78163 | -155.10229 | 4548 ft | 247 kts | 327° |
| 2026-05-04 04:54 | 19.79631 | -155.11269 | 5340 ft | 255 kts | 328° |
| 2026-05-04 04:54 | 19.81160 | -155.12328 | 6072 ft | 271 kts | 327° |
| 2026-05-04 04:54 | 19.82779 | -155.13435 | 6893 ft | 278 kts | 328° |
| 2026-05-04 04:54 | 19.84409 | -155.14539 | 7873 ft | 280 kts | 328° |
| 2026-05-04 04:55 | 19.86064 | -155.15654 | 8782 ft | 283 kts | 328° |
| 2026-05-04 04:55 | 19.87736 | -155.16777 | 9744 ft | 286 kts | 328° |
| 2026-05-04 04:55 | 19.89433 | -155.17915 | 10497 ft | 295 kts | 328° |
| 2026-05-04 04:55 | 19.91222 | -155.19113 | 10941 ft | 313 kts | 328° |
| 2026-05-04 04:56 | 19.93106 | -155.20375 | 11466 ft | 326 kts | 328° |
| 2026-05-04 04:56 | 19.95033 | -155.21667 | 12270 ft | 328 kts | 328° |
| 2026-05-04 04:56 | 19.96977 | -155.22969 | 13052 ft | 333 kts | 328° |
| 2026-05-04 04:56 | 19.98928 | -155.24278 | 13815 ft | 337 kts | 328° |
| 2026-05-04 04:57 | 20.00876 | -155.25685 | 14509 ft | 341 kts | 319° |
| 2026-05-04 04:57 | 20.02346 | -155.27661 | 15263 ft | 344 kts | 298° |
| 2026-05-04 04:57 | 20.03228 | -155.30041 | 15939 ft | 348 kts | 290° |
| 2026-05-04 04:57 | 20.03964 | -155.32305 | 16558 ft | 351 kts | 290° |
| 2026-05-04 04:58 | 20.04695 | -155.34594 | 17215 ft | 354 kts | 290° |
| 2026-05-04 04:58 | 20.05480 | -155.37090 | 17884 ft | 357 kts | 290° |
| 2026-05-04 04:58 | 20.06206 | -155.39418 | 18499 ft | 360 kts | 289° |
| 2026-05-04 04:58 | 20.06938 | -155.41774 | 19030 ft | 363 kts | 289° |
| 2026-05-04 04:59 | 20.07732 | -155.44334 | 19588 ft | 366 kts | 289° |
| 2026-05-04 04:59 | 20.08529 | -155.46912 | 20147 ft | 369 kts | 289° |
| 2026-05-04 04:59 | 20.09275 | -155.49323 | 20651 ft | 372 kts | 289° |
| 2026-05-04 04:59 | 20.10085 | -155.51941 | 21195 ft | 375 kts | 289° |
| 2026-05-04 05:00 | 20.10902 | -155.54588 | 21734 ft | 378 kts | 289° |
| 2026-05-04 05:00 | 20.11726 | -155.57257 | 22258 ft | 381 kts | 289° |
| 2026-05-04 05:00 | 20.13327 | -155.62448 | 23271 ft | 387 kts | 289° |
| 2026-05-04 05:01 | 20.14170 | -155.65183 | 23767 ft | 390 kts | 289° |
| 2026-05-04 05:01 | 20.14955 | -155.67734 | 24182 ft | 392 kts | 289° |
| 2026-05-04 05:01 | 20.15747 | -155.70307 | 24575 ft | 395 kts | 289° |
| 2026-05-04 05:01 | 20.16605 | -155.73096 | 25001 ft | 398 kts | 289° |
| 2026-05-04 05:02 | 20.17469 | -155.75906 | 25418 ft | 401 kts | 289° |
| 2026-05-04 05:02 | 20.18328 | -155.78701 | 25828 ft | 403 kts | 289° |
| 2026-05-04 05:02 | 20.19204 | -155.81554 | 26064 ft | 408 kts | 289° |
| 2026-05-04 05:02 | 20.20133 | -155.84441 | 26092 ft | 404 kts | 295° |
| 2026-05-04 05:03 | 20.21424 | -155.87039 | 26102 ft | 403 kts | 300° |
| 2026-05-04 05:03 | 20.22755 | -155.89663 | 26095 ft | 402 kts | 299° |
| 2026-05-04 05:04 | 20.26728 | -155.97528 | 26092 ft | 401 kts | 299° |
| 2026-05-04 05:04 | 20.28052 | -156.00151 | 26091 ft | 401 kts | 299° |
| 2026-05-04 05:04 | 20.29370 | -156.02763 | 26095 ft | 401 kts | 299° |
| 2026-05-04 05:06 | 20.38579 | -156.21049 | 26087 ft | 400 kts | 300° |
| 2026-05-04 05:06 | 20.39895 | -156.23665 | 26089 ft | 400 kts | 299° |
| 2026-05-04 05:06 | 20.41209 | -156.26280 | 26093 ft | 400 kts | 299° |
| 2026-05-04 05:07 | 20.42524 | -156.28899 | 26091 ft | 400 kts | 299° |
| 2026-05-04 05:07 | 20.43834 | -156.31510 | 26089 ft | 400 kts | 299° |
| 2026-05-04 05:07 | 20.45150 | -156.34132 | 26092 ft | 400 kts | 299° |
| 2026-05-04 05:09 | 20.55566 | -156.54938 | 26087 ft | 403 kts | 299° |
| 2026-05-04 05:09 | 20.56788 | -156.57383 | 26092 ft | 404 kts | 299° |
| 2026-05-04 05:10 | 20.58112 | -156.60034 | 26091 ft | 404 kts | 299° |
| 2026-05-04 05:10 | 20.59432 | -156.62679 | 26085 ft | 404 kts | 299° |
| 2026-05-04 05:10 | 20.60748 | -156.65317 | 26029 ft | 398 kts | 299° |
| 2026-05-04 05:10 | 20.62031 | -156.67890 | 25872 ft | 387 kts | 299° |
| 2026-05-04 05:11 | 20.63197 | -156.70229 | 25559 ft | 382 kts | 299° |
| 2026-05-04 05:11 | 20.64348 | -156.72540 | 25186 ft | 380 kts | 299° |
| 2026-05-04 05:11 | 20.65587 | -156.75027 | 24786 ft | 378 kts | 299° |
| 2026-05-04 05:11 | 20.66818 | -156.77500 | 24379 ft | 376 kts | 299° |
| 2026-05-04 05:12 | 20.68045 | -156.79965 | 23982 ft | 375 kts | 299° |
| 2026-05-04 05:12 | 20.69266 | -156.82421 | 23509 ft | 375 kts | 299° |
| 2026-05-04 05:12 | 20.70393 | -156.84689 | 23071 ft | 374 kts | 299° |
| 2026-05-04 05:12 | 20.71607 | -156.87131 | 22682 ft | 370 kts | 299° |
| 2026-05-04 05:13 | 20.72809 | -156.89551 | 22300 ft | 367 kts | 299° |
| 2026-05-04 05:13 | 20.73897 | -156.91745 | 21949 ft | 364 kts | 299° |
| 2026-05-04 05:13 | 20.75079 | -156.94126 | 21567 ft | 361 kts | 299° |
| 2026-05-04 05:13 | 20.76076 | -156.96137 | 21251 ft | 358 kts | 298° |
| 2026-05-04 05:14 | 20.76996 | -156.98603 | 20841 ft | 358 kts | 288° |
| 2026-05-04 05:14 | 20.77765 | -157.01120 | 20486 ft | 355 kts | 290° |
| 2026-05-04 05:14 | 20.78561 | -157.03600 | 20135 ft | 352 kts | 290° |
| 2026-05-04 05:14 | 20.79365 | -157.06063 | 19771 ft | 349 kts | 290° |
| 2026-05-04 05:15 | 20.80170 | -157.08502 | 19418 ft | 347 kts | 291° |
| 2026-05-04 05:15 | 20.80916 | -157.10754 | 19087 ft | 346 kts | 291° |
| 2026-05-04 05:15 | 20.81716 | -157.13168 | 18724 ft | 344 kts | 290° |
| 2026-05-04 05:15 | 20.82493 | -157.15580 | 18333 ft | 343 kts | 290° |
| 2026-05-04 05:16 | 20.83267 | -157.17987 | 17943 ft | 341 kts | 290° |
| 2026-05-04 05:16 | 20.84039 | -157.20385 | 17487 ft | 341 kts | 290° |
| 2026-05-04 05:16 | 20.84809 | -157.22773 | 17112 ft | 339 kts | 290° |
| 2026-05-04 05:16 | 20.85492 | -157.24895 | 16792 ft | 336 kts | 290° |
| 2026-05-04 05:17 | 20.86274 | -157.27326 | 16429 ft | 334 kts | 290° |
| 2026-05-04 05:17 | 20.87028 | -157.29671 | 16033 ft | 333 kts | 290° |
| 2026-05-04 05:17 | 20.87779 | -157.32006 | 15692 ft | 330 kts | 290° |
| 2026-05-04 05:17 | 20.88514 | -157.34295 | 15357 ft | 328 kts | 290° |
| 2026-05-04 05:18 | 20.89252 | -157.36592 | 15022 ft | 326 kts | 290° |
| 2026-05-04 05:18 | 20.89978 | -157.38857 | 14694 ft | 324 kts | 290° |
| 2026-05-04 05:18 | 20.90707 | -157.41128 | 14354 ft | 322 kts | 290° |
| 2026-05-04 05:18 | 20.91431 | -157.43387 | 14015 ft | 320 kts | 290° |
| 2026-05-04 05:19 | 20.92153 | -157.45640 | 13659 ft | 319 kts | 290° |
| 2026-05-04 05:19 | 20.92868 | -157.47876 | 13302 ft | 317 kts | 290° |
| 2026-05-04 05:19 | 20.93581 | -157.50102 | 12937 ft | 315 kts | 290° |
| 2026-05-04 05:19 | 20.94288 | -157.52312 | 12598 ft | 313 kts | 290° |
| 2026-05-04 05:20 | 20.94991 | -157.54510 | 12278 ft | 310 kts | 290° |
| 2026-05-04 05:20 | 20.95686 | -157.56684 | 11952 ft | 308 kts | 290° |
| 2026-05-04 05:20 | 20.96377 | -157.58847 | 11607 ft | 306 kts | 290° |
| 2026-05-04 05:20 | 20.97066 | -157.61004 | 11286 ft | 304 kts | 290° |
| 2026-05-04 05:21 | 20.97748 | -157.63139 | 10970 ft | 302 kts | 290° |
| 2026-05-04 05:21 | 20.98423 | -157.65257 | 10664 ft | 300 kts | 290° |
| 2026-05-04 05:21 | 20.99095 | -157.67365 | 10350 ft | 298 kts | 290° |
| 2026-05-04 05:21 | 20.99758 | -157.69443 | 10188 ft | 291 kts | 290° |
| 2026-05-04 05:22 | 21.00395 | -157.71443 | 10034 ft | 283 kts | 290° |
| 2026-05-04 05:22 | 21.00861 | -157.72907 | 9814 ft | 282 kts | 290° |
| 2026-05-04 05:22 | 21.01428 | -157.74687 | 9521 ft | 281 kts | 290° |
| 2026-05-04 05:22 | 21.02056 | -157.76659 | 9200 ft | 280 kts | 290° |
| 2026-05-04 05:23 | 21.02741 | -157.78603 | 8834 ft | 279 kts | 299° |
| 2026-05-04 05:23 | 21.03819 | -157.80326 | 8397 ft | 278 kts | 308° |
| 2026-05-04 05:23 | 21.05005 | -157.81950 | 7947 ft | 275 kts | 309° |
| 2026-05-04 05:23 | 21.06181 | -157.83547 | 7513 ft | 272 kts | 309° |
| 2026-05-04 05:24 | 21.07344 | -157.85130 | 7078 ft | 269 kts | 309° |
| 2026-05-04 05:24 | 21.08497 | -157.86698 | 6643 ft | 267 kts | 309° |
| 2026-05-04 05:24 | 21.09638 | -157.88259 | 6200 ft | 265 kts | 309° |
| 2026-05-04 05:24 | 21.10777 | -157.89819 | 5750 ft | 265 kts | 309° |
| 2026-05-04 05:25 | 21.11913 | -157.91373 | 5298 ft | 264 kts | 309° |
| 2026-05-04 05:25 | 21.13037 | -157.92911 | 4849 ft | 262 kts | 312° |
| 2026-05-04 05:25 | 21.14242 | -157.94372 | 4376 ft | 260 kts | 314° |
| 2026-05-04 05:25 | 21.15355 | -157.95709 | 3951 ft | 259 kts | 314° |
| 2026-05-04 05:26 | 21.16548 | -157.97158 | 3520 ft | 257 kts | 316° |
| 2026-05-04 05:26 | 21.17790 | -157.98503 | 3079 ft | 255 kts | 320° |
| 2026-05-04 05:26 | 21.18958 | -157.99736 | 2701 ft | 253 kts | 319° |
| 2026-05-04 05:26 | 21.20222 | -158.01005 | 2337 ft | 244 kts | 330° |
| 2026-05-04 05:27 | 21.21715 | -158.01753 | 2006 ft | 232 kts | 347° |
| 2026-05-04 05:28 | 21.27977 | -157.97938 | 1292 ft | 132 kts | 55° |
| 2026-05-04 05:29 | 21.28514 | -157.97133 | 1032 ft | 132 kts | 55° |
| 2026-05-04 05:29 | 21.29056 | -157.96330 | 814 ft | 133 kts | 53° |
| 2026-05-04 05:29 | 21.29602 | -157.95534 | 734 ft | 132 kts | 52° |
| 2026-05-04 05:29 | 21.30135 | -157.94740 | 520 ft | 132 kts | 52° |
| 2026-05-04 05:31 | 21.32955 | -157.90751 | 26 ft | 15 kts | 40° |
| 2026-05-04 05:31 | 21.33039 | -157.90781 | 29 ft | 16 kts | 283° |
| 2026-05-04 05:32 | 21.33017 | -157.90901 | 28 ft | 18 kts | 241° |
| 2026-05-04 05:32 | 21.32939 | -157.91014 | 26 ft | 20 kts | 233° |
| 2026-05-04 05:32 | 21.32851 | -157.91139 | 26 ft | 22 kts | 233° |
| 2026-05-04 05:33 | 21.32775 | -157.91468 | 26 ft | 26 kts | 271° |
| 2026-05-04 05:33 | 21.32779 | -157.91652 | 26 ft | 27 kts | 272° |
| 2026-05-04 05:33 | 21.32776 | -157.91792 | 26 ft | 11 kts | 268° |
| 2026-05-04 05:33 | 21.32775 | -157.91852 | 26 ft | 9 kts | 269° |
| 2026-05-04 05:34 | 21.32774 | -157.91956 | 26 ft | 18 kts | 270° |
| 2026-05-04 05:34 | 21.32777 | -157.92052 | 26 ft | 9 kts | 280° |
| 2026-05-04 05:34 | 21.32813 | -157.92107 | 27 ft | 7 kts | 346° |
| 2026-05-04 05:34 | 21.32850 | -157.92084 | 26 ft | 7 kts | 46° |
| 2026-05-04 05:35 | 21.32872 | -157.92062 | 26 ft | 0 kts | 42° |
| 2026-05-04 05:35 | 21.32871 | -157.92063 | 26 ft | 0 kts | 42° |